| time (UTC) | temp F | wind direction | speed MPH | gust MPH | rain 1hr in | rain 24hr in | rain mn in | humidity % | barometer mb |
| 20260505003118 | 66 | 9 | 0.0 | 0.0 | 0.00 | 0.00 | 0.00 | 74 | 1016.6 |
| 20260505001614 | 68 | 348 | 0.0 | 0.0 | 0.00 | 0.00 | 0.00 | 70 | 1016.4 |
| 20260505000113 | 69 | 348 | 0.0 | 0.0 | 0.00 | 0.00 | 0.00 | 65 | 1016.5 |
| 20260504234608 | 71 | 7 | 0.0 | 0.0 | 0.00 | 0.00 | 0.00 | 63 | 1016.4 |
| 20260504233103 | 73 | 353 | 0.0 | 1.0 | 0.00 | 0.00 | 0.00 | 60 | 1016.7 |
| 20260504231600 | 74 | 356 | 0.0 | 0.0 | 0.00 | 0.00 | 0.00 | 56 | 1016.6 |
| 20260504230058 | 74 | 5 | 0.0 | 0.0 | 0.00 | 0.00 | 0.00 | 51 | 1016.9 |
| 20260504224554 | 76 | 341 | 0.0 | 0.0 | 0.00 | 0.00 | 0.00 | 49 | 1016.9 |
| 20260504223049 | 77 | 339 | 0.0 | 1.0 | 0.00 | 0.00 | 0.00 | 48 | 1016.7 |
| 20260504221547 | 77 | 311 | 0.0 | 3.0 | 0.00 | 0.00 | 0.00 | 41 | 1017.0 |
| 20260504220043 | 78 | 222 | 3.0 | 5.0 | 0.00 | 0.00 | 0.00 | 41 | 1017.1 |
| 20260504214538 | 78 | 329 | 0.0 | 3.0 | 0.00 | 0.00 | 0.00 | 44 | 1017.2 |
| 20260504213035 | 78 | 118 | 1.0 | 3.0 | 0.00 | 0.00 | 0.00 | 40 | 1017.3 |
| 20260504211531 | 78 | 197 | 0.0 | 1.0 | 0.00 | 0.00 | 0.00 | 43 | 1017.1 |
| 20260504210027 | 78 | 232 | 2.0 | 4.0 | 0.00 | 0.00 | 0.00 | 42 | 1017.4 |
| 20260504204526 | 78 | 252 | 3.0 | 4.0 | 0.00 | 0.00 | 0.00 | 44 | 1017.3 |
| 20260504203026 | 79 | 346 | 0.0 | 1.0 | 0.00 | 0.00 | 0.00 | 41 | 1017.5 |
| 20260504201521 | 80 | 348 | 0.0 | 4.0 | 0.00 | 0.00 | 0.00 | 42 | 1017.7 |
| 20260504200018 | 80 | 273 | 1.0 | 4.0 | 0.00 | 0.00 | 0.00 | 38 | 1017.9 |
| 20260504194513 | 81 | 266 | 1.0 | 4.0 | 0.00 | 0.00 | 0.00 | 35 | 1018.0 |
| 20260504193010 | 82 | 227 | 0.0 | 1.0 | 0.00 | 0.00 | 0.00 | 38 | 1018.5 |
| 20260504191509 | 82 | 118 | 1.0 | 3.0 | 0.00 | 0.00 | 0.00 | 41 | 1018.7 |
| 20260504190009 | 79 | 228 | 0.0 | 3.0 | 0.00 | 0.00 | 0.00 | 42 | 1018.9 |
| 20260504184509 | 81 | 232 | 0.0 | 3.0 | 0.00 | 0.00 | 0.00 | 42 | 1019.1 |
| 20260504183007 | 82 | 241 | 2.0 | 3.0 | 0.00 | 0.00 | 0.00 | 41 | 1019.5 |
| 20260504181503 | 83 | 273 | 0.0 | 3.0 | 0.00 | 0.00 | 0.00 | 39 | 1019.8 |
| 20260504175958 | 80 | 160 | 2.0 | 3.0 | 0.00 | 0.00 | 0.00 | 42 | 1020.0 |
| 20260504174456 | 80 | 225 | 2.0 | 4.0 | 0.00 | 0.00 | 0.00 | 42 | 1020.1 |
| 20260504172953 | 80 | 306 | 1.0 | 1.0 | 0.00 | 0.00 | 0.00 | 45 | 1020.1 |
| 20260504171448 | 77 | 18 | 1.0 | 3.0 | 0.00 | 0.00 | 0.00 | 47 | 1020.3 |
| 20260504081302 | 42 | 348 | 0.0 | 0.0 | 0.00 | 0.00 | 0.00 | 95 | 1021.1 |
| 20260504045721 | 47 | 346 | 0.0 | 0.0 | 0.00 | 0.00 | 0.00 | 93 | 1022.5 |
| 20260504044216 | 47 | 348 | 0.0 | 0.0 | 0.00 | 0.00 | 0.00 | 93 | 1022.3 |
| 20260504042713 | 48 | 7 | 0.0 | 0.0 | 0.00 | 0.00 | 0.00 | 93 | 1022.5 |
| 20260504041213 | 48 | 345 | 0.0 | 0.0 | 0.00 | 0.00 | 0.00 | 93 | 1022.5 |
| 20260504035709 | 48 | 1 | 0.0 | 0.0 | 0.00 | 0.00 | 0.00 | 93 | 1022.6 |
| 20260504034207 | 48 | 12 | 0.0 | 0.0 | 0.00 | 0.00 | 0.00 | 92 | 1022.9 |
| 20260504032705 | 50 | 350 | 0.0 | 0.0 | 0.00 | 0.00 | 0.00 | 92 | 1022.7 |
| 20260504031201 | 50 | 354 | 0.0 | 0.0 | 0.00 | 0.00 | 0.00 | 92 | 1022.7 |
| 20260504025657 | 51 | 359 | 0.0 | 0.0 | 0.00 | 0.00 | 0.00 | 91 | 1022.7 |
| 20260504024153 | 51 | 354 | 0.0 | 0.0 | 0.00 | 0.00 | 0.00 | 91 | 1022.4 |
| 20260504022648 | 52 | 352 | 0.0 | 0.0 | 0.00 | 0.00 | 0.00 | 90 | 1022.4 |
| 20260504021144 | 52 | 350 | 0.0 | 0.0 | 0.00 | 0.00 | 0.00 | 90 | 1022.3 |
| 20260504015640 | 53 | 349 | 0.0 | 0.0 | 0.00 | 0.00 | 0.00 | 89 | 1021.8 |
| 20260504014135 | 54 | 347 | 0.0 | 0.0 | 0.00 | 0.00 | 0.00 | 88 | 1021.9 |
| 20260504012633 | 55 | 350 | 0.0 | 0.0 | 0.00 | 0.00 | 0.00 | 87 | 1021.6 |
| 20260504011130 | 56 | 350 | 0.0 | 0.0 | 0.00 | 0.00 | 0.00 | 85 | 1021.6 |
| 20260504005630 | 57 | 347 | 0.0 | 0.0 | 0.00 | 0.00 | 0.00 | 84 | 1021.6 |
| 20260504004128 | 58 | 348 | 0.0 | 0.0 | 0.00 | 0.00 | 0.00 | 81 | 1021.4 |